Terminal Aerodrome Forecast
Issued by NWS Midland/Odessa, TX

Home | Current Version | Previous Version | Text Only | Print | Product List | Glossary On
Versions: 1 2 3 4 5 6 7 8 9 10 11 12 13 14 15 16 17 18 19 20 21 22 23 24 25 26 27 28 29 30 31 32 33
000
FTUS44 KMAF 212000 AAA
TAFMAF
TAF AMD
KMAF 212020Z 2120/2218 07012KT P6SM SCT025 BKN040
      TEMPO 2120/2122 3SM TSRA BR BKN010 OVC030CB
     FM212200 13010KT P6SM SCT025 BKN040
      TEMPO 2122/2202 4SM TSRA BR OVC025CB=

USA.gov is the U.S. government's official web portal to all federal, state and local government web resources and services.